createdAt,value
2023-01-04T00:01:44.009Z,0.58
2023-01-04T00:04:45.510Z,0.55
2023-01-04T00:07:47.029Z,0.48
2023-01-04T00:10:48.560Z,0.41
2023-01-04T00:13:51.812Z,0.37
2023-01-04T00:16:53.466Z,0.54
2023-01-04T00:19:54.955Z,0.57
2023-01-04T00:22:56.492Z,0.46
2023-01-04T00:25:58.006Z,0.50
2023-01-04T00:29:04.429Z,0.50
2023-01-04T00:32:05.974Z,0.51
2023-01-04T00:35:07.611Z,0.48
2023-01-04T00:38:09.129Z,0.36
2023-01-04T00:41:23.107Z,0.42
2023-01-04T00:44:34.000Z,0.34
2023-01-04T00:47:35.439Z,0.31
2023-01-04T00:50:36.989Z,0.42
2023-01-04T00:53:38.504Z,0.23
2023-01-04T00:56:40.076Z,0.10
2023-01-04T00:59:41.585Z,0.11
2023-01-04T01:02:43.235Z,0.06
2023-01-04T01:05:44.940Z,0.21
2023-01-04T01:08:46.446Z,0.11
2023-01-04T01:11:48.049Z,0.19
2023-01-04T01:14:49.551Z,-0.01
2023-01-04T01:17:51.077Z,0.04
2023-01-04T01:20:52.766Z,-0.02
2023-01-04T01:23:54.926Z,-0.16
2023-01-04T01:26:56.501Z,-0.21
2023-01-04T01:29:58.011Z,-0.21
2023-01-04T01:32:59.531Z,-0.34
2023-01-04T01:36:02.190Z,-0.22
2023-01-04T01:39:04.631Z,-0.27
2023-01-04T01:42:06.177Z,-0.15
2023-01-04T01:45:22.727Z,-0.19
2023-01-04T01:48:27.425Z,-0.29
2023-01-04T01:51:29.017Z,-0.11
2023-01-04T01:54:36.242Z,-0.12
2023-01-04T01:57:38.115Z,0.02
2023-01-04T02:00:39.653Z,-0.09
2023-01-04T02:03:42.418Z,-0.11
2023-01-04T02:06:47.522Z,-0.12
2023-01-04T02:09:49.428Z,-0.29
2023-01-04T02:12:51.890Z,-0.20
2023-01-04T02:15:56.392Z,-0.26
2023-01-04T02:19:36.913Z,-0.15
2023-01-04T02:22:59.790Z,-0.03
2023-01-04T02:26:29.303Z,-0.18
2023-01-04T02:29:53.572Z,-0.09
2023-01-04T02:32:55.007Z,-0.15
2023-01-04T02:36:08.672Z,-0.16
2023-01-04T02:39:23.050Z,-0.11
2023-01-04T02:42:55.611Z,-0.24
2023-01-04T02:46:02.616Z,0.24
2023-01-04T02:49:22.800Z,-0.05
2023-01-04T02:52:26.623Z,0.04
2023-01-04T02:55:41.010Z,-0.15
2023-01-04T02:58:56.371Z,0.11
2023-01-04T03:02:34.516Z,-0.10
2023-01-04T03:06:17.813Z,0.38
2023-01-04T03:09:21.905Z,0.56
2023-01-04T03:12:32.043Z,0.41
2023-01-04T03:15:34.653Z,-0.01
2023-01-04T03:18:38.316Z,0.09
2023-01-04T03:21:42.439Z,0.70
2023-01-04T03:25:02.533Z,0.88
2023-01-04T03:28:22.688Z,0.95
2023-01-04T03:31:52.637Z,0.70
2023-01-04T03:35:12.868Z,0.99
2023-01-04T03:38:40.188Z,1.32
2023-01-04T03:42:14.829Z,1.70
2023-01-04T03:45:41.078Z,1.84
2023-01-04T03:49:06.232Z,2.04
2023-01-04T03:52:07.770Z,2.19
2023-01-04T03:55:09.603Z,2.44
2023-01-04T03:58:11.629Z,2.42
2023-01-04T04:01:13.303Z,2.48
2023-01-04T04:04:33.594Z,2.61
2023-01-04T04:07:53.866Z,2.61
2023-01-04T04:10:57.815Z,2.77
2023-01-04T04:13:59.860Z,2.81
2023-01-04T04:17:01.506Z,2.80
2023-01-04T04:20:03.351Z,2.88
2023-01-04T04:23:04.886Z,3.06
2023-01-04T04:26:06.471Z,3.11
2023-01-04T04:29:08.031Z,3.27
2023-01-04T04:32:09.604Z,3.25
2023-01-04T04:35:11.541Z,3.32
2023-01-04T04:38:13.095Z,3.39
2023-01-04T04:41:33.166Z,3.48
2023-01-04T04:44:34.743Z,3.55
2023-01-04T04:47:36.296Z,3.58
2023-01-04T04:50:37.845Z,3.76
2023-01-04T04:53:39.358Z,4.04
2023-01-04T04:56:40.936Z,4.13
2023-01-04T04:59:42.455Z,4.27
2023-01-04T05:02:44.033Z,4.22
2023-01-04T05:05:45.727Z,4.23
2023-01-04T05:08:47.243Z,4.26
2023-01-04T05:12:07.426Z,4.26
2023-01-04T05:15:09.156Z,4.32
2023-01-04T05:18:11.882Z,4.31
2023-01-04T05:21:17.015Z,4.47
2023-01-04T05:24:21.599Z,4.47
2023-01-04T05:27:23.128Z,4.44
2023-01-04T05:30:43.348Z,4.54
2023-01-04T05:33:44.876Z,4.65
2023-01-04T05:36:46.409Z,4.69
2023-01-04T05:39:47.914Z,4.74
2023-01-04T05:42:49.587Z,4.79
2023-01-04T05:45:52.979Z,4.80
2023-01-04T05:48:54.539Z,4.85
2023-01-04T05:51:56.088Z,4.87
2023-01-04T05:54:57.627Z,5.02
2023-01-04T05:57:59.203Z,5.14
2023-01-04T06:01:00.741Z,5.30
2023-01-04T06:04:02.278Z,5.36
2023-01-04T06:07:03.859Z,5.36
2023-01-04T06:10:07.441Z,5.38
2023-01-04T06:13:09.028Z,5.44
2023-01-04T06:16:10.615Z,5.48
2023-01-04T06:19:12.210Z,5.44
2023-01-04T06:22:13.781Z,5.51
2023-01-04T06:25:15.549Z,5.44
2023-01-04T06:28:17.087Z,5.45
2023-01-04T06:31:18.623Z,5.51
2023-01-04T06:34:23.979Z,5.42
2023-01-04T06:37:28.462Z,5.33
2023-01-04T06:40:30.005Z,5.31
2023-01-04T06:43:31.567Z,5.29
2023-01-04T06:46:33.200Z,5.27
2023-01-04T06:49:34.862Z,5.23
2023-01-04T06:52:36.657Z,5.25
2023-01-04T06:55:38.239Z,5.30
2023-01-04T06:58:39.906Z,5.34
2023-01-04T07:01:41.657Z,5.35
2023-01-04T07:04:43.421Z,5.20
2023-01-04T07:07:45.085Z,5.21
2023-01-04T07:10:46.646Z,5.27
2023-01-04T07:13:48.165Z,5.33
2023-01-04T07:16:49.816Z,5.26
2023-01-04T07:19:51.406Z,5.23
2023-01-04T07:22:53.127Z,5.33
2023-01-04T07:25:54.676Z,5.12
2023-01-04T07:29:14.625Z,5.06
2023-01-04T07:32:16.218Z,5.11
2023-01-04T07:35:17.742Z,5.32
2023-01-04T07:38:19.242Z,5.44
2023-01-04T07:41:20.785Z,5.42
2023-01-04T07:44:22.365Z,5.53
2023-01-04T07:47:23.872Z,5.51
2023-01-04T07:50:25.391Z,5.45
2023-01-04T07:53:27.023Z,5.16
2023-01-04T07:56:28.572Z,4.94
2023-01-04T07:59:30.152Z,4.95
2023-01-04T08:02:31.867Z,4.82
2023-01-04T08:05:34.232Z,4.98
2023-01-04T08:08:35.748Z,5.16
2023-01-04T08:11:37.387Z,5.10
2023-01-04T08:14:39.204Z,5.03
2023-01-04T08:17:40.781Z,5.24
2023-01-04T08:20:42.290Z,5.42
2023-01-04T08:23:43.858Z,5.59
2023-01-04T08:26:45.680Z,5.70
2023-01-04T08:29:47.328Z,5.78
2023-01-04T08:32:50.613Z,5.85
2023-01-04T08:35:52.185Z,5.91
2023-01-04T08:38:59.742Z,6.09
2023-01-04T08:42:14.505Z,6.15
2023-01-04T08:45:20.634Z,6.14
2023-01-04T08:48:24.678Z,6.26
2023-01-04T08:51:26.771Z,6.32
2023-01-04T08:54:28.324Z,6.29
2023-01-04T08:57:29.848Z,6.40
2023-01-04T09:00:31.366Z,6.46
2023-01-04T09:03:33.186Z,6.42
2023-01-04T09:06:35.103Z,6.51
2023-01-04T09:09:36.648Z,6.52
2023-01-04T09:12:38.250Z,6.74
2023-01-04T09:15:39.805Z,6.64
2023-01-04T09:18:41.417Z,6.57
2023-01-04T09:21:42.994Z,6.68
2023-01-04T09:24:44.759Z,6.70
2023-01-04T09:27:46.415Z,6.74
2023-01-04T09:30:48.008Z,6.78
2023-01-04T09:37:11.255Z,6.87
2023-01-04T09:40:19.979Z,6.81
2023-01-04T09:43:22.425Z,6.84
2023-01-04T09:46:26.823Z,6.89
2023-01-04T09:49:44.275Z,6.89
2023-01-04T09:52:56.774Z,6.86
2023-01-04T09:56:02.417Z,6.81
2023-01-04T09:59:09.196Z,6.93
2023-01-04T10:02:17.073Z,6.87
2023-01-04T10:05:23.863Z,6.89
2023-01-04T10:08:25.459Z,6.97
2023-01-04T10:11:35.203Z,6.93
2023-01-04T10:14:58.619Z,7.03
2023-01-04T10:21:37.311Z,7.29
2023-01-04T10:24:38.909Z,7.28
2023-01-04T10:28:00.821Z,7.36
2023-01-04T10:31:38.760Z,7.43
2023-01-04T10:34:39.008Z,7.48
2023-01-04T10:37:40.588Z,7.51
2023-01-04T10:40:42.398Z,7.49
2023-01-04T10:44:12.101Z,7.50
2023-01-04T10:47:35.736Z,7.55
2023-01-04T10:50:45.473Z,7.48
2023-01-04T10:54:11.215Z,7.52
2023-01-04T10:57:26.826Z,7.56
2023-01-04T11:00:35.354Z,7.56
2023-01-04T11:03:57.111Z,7.54
2023-01-04T11:07:10.579Z,7.51
2023-01-04T11:10:18.481Z,7.60
2023-01-04T11:13:20.046Z,7.61
2023-01-04T11:16:21.668Z,7.64
2023-01-04T11:19:23.263Z,7.70
2023-01-04T11:22:31.854Z,7.70
2023-01-04T11:25:36.905Z,7.81
2023-01-04T11:28:49.275Z,7.83
2023-01-04T11:31:56.716Z,7.84
2023-01-04T11:34:58.316Z,7.90
2023-01-04T11:38:09.814Z,7.89
2023-01-04T11:41:11.304Z,7.92
2023-01-04T11:44:12.832Z,7.89
2023-01-04T11:47:21.197Z,7.95
2023-01-04T11:50:46.320Z,7.89
2023-01-04T11:53:57.669Z,7.90
2023-01-04T11:57:01.565Z,7.88
2023-01-04T12:00:15.766Z,7.85
2023-01-04T12:03:18.979Z,7.85
2023-01-04T12:06:50.572Z,7.92
2023-01-04T12:09:52.108Z,7.91
2023-01-04T12:12:54.383Z,7.87
2023-01-04T12:16:05.906Z,7.87
2023-01-04T12:19:08.644Z,7.89
2023-01-04T12:22:36.762Z,7.78
2023-01-04T12:25:45.788Z,7.77
2023-01-04T12:28:48.971Z,7.73
2023-01-04T12:32:05.643Z,7.71
2023-01-04T12:35:32.376Z,7.72
2023-01-04T12:38:52.266Z,7.66
2023-01-04T12:42:03.749Z,7.64
2023-01-04T12:45:10.805Z,7.63
2023-01-04T12:48:46.372Z,7.71
2023-01-04T12:52:20.445Z,7.75
2023-01-04T12:55:31.490Z,7.81
2023-01-04T12:59:06.685Z,7.78
2023-01-04T13:02:16.851Z,7.76
2023-01-04T13:05:54.905Z,7.76
2023-01-04T13:08:40.953Z,7.80
2023-01-04T13:12:14.716Z,7.74
2023-01-04T13:15:35.383Z,7.82
2023-01-04T13:18:41.030Z,7.88
2023-01-04T13:21:46.223Z,7.89
2023-01-04T13:24:48.010Z,7.83
2023-01-04T13:27:59.995Z,7.84
2023-01-04T13:31:01.666Z,7.82
2023-01-04T13:34:03.318Z,7.77
2023-01-04T13:37:11.040Z,7.89
2023-01-04T13:40:17.327Z,7.93
2023-01-04T13:43:34.385Z,7.95
2023-01-04T13:46:35.914Z,7.97
2023-01-04T13:49:38.580Z,7.87
2023-01-04T13:52:59.820Z,7.88
2023-01-04T13:56:03.123Z,7.85
2023-01-04T13:59:04.718Z,7.78
2023-01-04T14:02:17.242Z,7.86
2023-01-04T14:05:19.011Z,7.84
2023-01-04T14:08:49.947Z,7.87
2023-01-04T14:12:06.084Z,7.82
2023-01-04T14:15:21.974Z,7.86
2023-01-04T14:18:30.173Z,7.82
2023-01-04T14:21:36.313Z,7.84
2023-01-04T14:28:28.493Z,7.80
2023-01-04T14:31:31.220Z,7.80
2023-01-04T14:34:32.800Z,7.79
2023-01-04T14:37:35.194Z,7.74
2023-01-04T14:40:36.562Z,7.79
2023-01-04T14:43:49.789Z,7.75
2023-01-04T14:46:53.191Z,7.76
2023-01-04T14:49:54.835Z,7.76
2023-01-04T14:52:56.402Z,7.77
2023-01-04T14:55:58.145Z,7.70
2023-01-04T14:59:00.193Z,7.72
2023-01-04T15:02:01.841Z,7.65
2023-01-04T15:05:03.522Z,7.65
2023-01-04T15:08:05.254Z,7.74
2023-01-04T15:11:06.783Z,7.73
2023-01-04T15:14:08.306Z,7.69
2023-01-04T15:17:10.364Z,7.70
2023-01-04T15:20:12.115Z,7.67
2023-01-04T15:23:13.729Z,7.70
2023-01-04T15:26:15.778Z,7.75
2023-01-04T15:29:17.358Z,7.75
2023-01-04T15:32:18.953Z,7.80
2023-01-04T15:35:20.612Z,7.71
2023-01-04T15:38:22.143Z,7.64
2023-01-04T15:41:42.369Z,7.74
2023-01-04T15:44:44.082Z,7.74
2023-01-04T15:47:45.722Z,7.80
2023-01-04T15:50:47.235Z,7.68
2023-01-04T15:53:52.267Z,7.72
2023-01-04T15:56:53.849Z,7.68
2023-01-04T15:59:55.354Z,7.64
2023-01-04T16:02:56.967Z,7.61
2023-01-04T16:06:03.431Z,7.68
2023-01-04T16:09:05.593Z,7.66
2023-01-04T16:12:26.169Z,7.60
2023-01-04T16:15:27.713Z,7.69
2023-01-04T16:18:32.551Z,7.78
2023-01-04T16:21:34.450Z,7.93
2023-01-04T16:27:57.585Z,7.86
2023-01-04T16:30:59.233Z,7.83
2023-01-04T16:34:00.841Z,7.87
2023-01-04T16:37:02.369Z,7.80
2023-01-04T16:40:07.151Z,7.86
2023-01-04T16:43:09.744Z,7.83
2023-01-04T16:46:31.200Z,7.74
2023-01-04T16:49:32.848Z,7.65
2023-01-04T16:52:34.440Z,7.60
2023-01-04T16:55:35.978Z,7.66
2023-01-04T16:58:37.671Z,7.55
2023-01-04T17:01:47.877Z,7.52
2023-01-04T17:04:56.957Z,7.48
2023-01-04T17:07:58.469Z,7.60
2023-01-04T17:11:38.480Z,7.67
2023-01-04T17:14:29.874Z,7.76
2023-01-04T17:17:31.402Z,7.73
2023-01-04T17:20:33.003Z,7.72
2023-01-04T17:23:38.873Z,7.86
2023-01-04T17:26:40.460Z,7.83
2023-01-04T17:29:41.975Z,7.76
2023-01-04T17:32:43.453Z,7.75
2023-01-04T17:35:44.984Z,7.73
2023-01-04T17:38:46.578Z,7.67
2023-01-04T17:41:48.154Z,7.71
2023-01-04T17:44:49.728Z,7.62
2023-01-04T17:47:51.431Z,7.59
2023-01-04T17:50:52.956Z,7.55
2023-01-04T17:53:56.203Z,7.71
2023-01-04T17:56:57.908Z,7.71
2023-01-04T17:59:59.457Z,7.65
2023-01-04T18:03:01.074Z,7.59
2023-01-04T18:06:25.894Z,7.69
2023-01-04T18:09:25.609Z,7.64
2023-01-04T18:12:28.768Z,7.56
2023-01-04T18:15:30.333Z,7.60
2023-01-04T18:18:32.110Z,7.56
2023-01-04T18:21:33.892Z,7.58
2023-01-04T18:24:38.180Z,7.61
2023-01-04T18:27:40.056Z,7.62
2023-01-04T18:30:41.601Z,7.70
2023-01-04T18:33:43.880Z,7.71
2023-01-04T18:36:45.616Z,7.74
2023-01-04T18:39:48.112Z,7.70
2023-01-04T18:42:49.776Z,7.86
2023-01-04T18:45:51.350Z,7.77
2023-01-04T18:48:54.317Z,7.85
2023-01-04T18:51:55.857Z,7.85
2023-01-04T18:54:57.438Z,7.86
2023-01-04T18:57:58.958Z,7.88
2023-01-04T19:01:05.476Z,7.84
2023-01-04T19:04:07.031Z,7.86
2023-01-04T19:07:08.728Z,8.01
2023-01-04T19:10:10.347Z,7.95
2023-01-04T19:13:11.955Z,7.90
2023-01-04T19:16:14.065Z,7.91
2023-01-04T19:19:15.658Z,7.89
2023-01-04T19:22:17.205Z,7.94
2023-01-04T19:25:23.183Z,8.08
2023-01-04T19:28:27.900Z,8.03
2023-01-04T19:31:29.412Z,8.07
2023-01-04T19:34:30.951Z,8.16
2023-01-04T19:37:32.471Z,8.13
2023-01-04T19:40:34.071Z,8.16
2023-01-04T19:43:35.690Z,8.10
2023-01-04T19:46:38.383Z,8.38
2023-01-04T19:49:39.961Z,8.39
2023-01-04T19:52:41.497Z,8.40
2023-01-04T19:55:43.033Z,8.50
2023-01-04T19:58:44.616Z,8.44
2023-01-04T20:01:46.221Z,8.47
2023-01-04T20:04:47.853Z,8.50
2023-01-04T20:07:50.777Z,8.46
2023-01-04T20:10:56.033Z,8.46
2023-01-04T20:13:57.647Z,8.45
2023-01-04T20:16:59.319Z,8.50
2023-01-04T20:20:00.884Z,8.51
2023-01-04T20:23:02.426Z,8.50
2023-01-04T20:26:11.402Z,8.66
2023-01-04T20:29:13.213Z,8.57
2023-01-04T20:32:14.740Z,8.53
2023-01-04T20:35:16.325Z,8.57
2023-01-04T20:38:18.026Z,8.48
2023-01-04T20:41:21.034Z,8.38
2023-01-04T20:44:22.542Z,8.46
2023-01-04T20:47:24.074Z,8.38
2023-01-04T20:50:25.603Z,8.49
2023-01-04T20:53:27.204Z,8.52
2023-01-04T20:56:29.355Z,8.52
2023-01-04T20:59:30.948Z,8.49
2023-01-04T21:02:37.914Z,8.51
2023-01-04T21:05:44.032Z,8.62
2023-01-04T21:08:45.603Z,8.54
2023-01-04T21:11:47.137Z,8.54
2023-01-04T21:14:48.645Z,8.55
2023-01-04T21:17:50.135Z,8.52
2023-01-04T21:20:51.784Z,8.63
2023-01-04T21:23:57.871Z,8.75
2023-01-04T21:27:00.147Z,8.77
2023-01-04T21:30:01.707Z,8.78
2023-01-04T21:33:03.234Z,8.93
2023-01-04T21:36:12.532Z,8.76
2023-01-04T21:39:14.060Z,8.81
2023-01-04T21:42:15.572Z,8.71
2023-01-04T21:45:17.166Z,8.73
2023-01-04T21:48:18.723Z,8.72
2023-01-04T21:51:20.254Z,8.64
2023-01-04T21:54:21.964Z,8.67
2023-01-04T21:57:23.518Z,8.67
2023-01-04T22:00:25.027Z,8.70
2023-01-04T22:03:26.551Z,8.70
2023-01-04T22:06:28.134Z,8.74
2023-01-04T22:09:29.669Z,8.74
2023-01-04T22:12:31.188Z,8.68
2023-01-04T22:15:32.725Z,8.61
2023-01-04T22:18:34.291Z,8.69
2023-01-04T22:21:35.813Z,8.69
2023-01-04T22:24:38.205Z,8.63
2023-01-04T22:27:39.964Z,8.61
2023-01-04T22:30:42.039Z,8.60
2023-01-04T22:33:43.758Z,8.63
2023-01-04T22:36:45.320Z,8.62
2023-01-04T22:39:46.839Z,8.70
2023-01-04T22:42:48.536Z,8.66
2023-01-04T22:45:50.040Z,8.75
2023-01-04T22:48:51.567Z,8.74
2023-01-04T22:51:55.442Z,8.79
2023-01-04T22:54:56.968Z,8.78
2023-01-04T22:57:58.567Z,8.70
2023-01-04T23:01:00.134Z,8.60
2023-01-04T23:04:01.920Z,8.60
2023-01-04T23:07:03.533Z,8.77
2023-01-04T23:10:05.564Z,8.77
2023-01-04T23:13:07.095Z,8.69
2023-01-04T23:16:11.046Z,8.62
2023-01-04T23:19:12.857Z,8.66
2023-01-04T23:22:14.422Z,8.71
2023-01-04T23:25:15.972Z,8.79
2023-01-04T23:28:17.488Z,8.74
2023-01-04T23:31:22.958Z,8.73
2023-01-04T23:34:24.609Z,8.60
2023-01-04T23:37:26.138Z,8.64
2023-01-04T23:40:27.716Z,8.68
2023-01-04T23:43:29.287Z,8.77
2023-01-04T23:46:30.776Z,8.72
2023-01-04T23:49:33.601Z,8.74
2023-01-04T23:52:35.249Z,8.65
2023-01-04T23:55:36.772Z,8.62
2023-01-04T23:58:38.287Z,8.55
